Home > Products > Valid Products > TAF

000
FTPA31 PHFO 201100
TAFHNL
TAF
PHNL 201120Z 2012/2118 06008KT P6SM SCT035 BKN045
     FM202000 15008KT P6SM SCT025 BKN050
     FM210300 06008KT P6SM SCT025 BKN050
     FM210700 06006KT P6SM SCT050=



000
FTPA31 PHFO 201100
TAFHNL
TAF
PHNL 201120Z 2012/2118 06008KT P6SM SCT035 BKN045
     FM202000 15008KT P6SM SCT025 BKN050
     FM210300 06008KT P6SM SCT025 BKN050
     FM210700 06006KT P6SM SCT050=



000
FTPA31 PHFO 200900 AAA
TAFHNL
TAF AMD
PHNL 200904Z 2009/2112 06008KT P6SM SCT035 BKN045
     FM202000 15008KT P6SM SCT025 BKN050
     FM210300 06008KT P6SM SCT025 BKN050
     FM210700 06006KT P6SM SCT050=



000
FTPA31 PHFO 200900 AAA
TAFHNL
TAF AMD
PHNL 200904Z 2009/2112 06008KT P6SM SCT035 BKN045
     FM202000 15008KT P6SM SCT025 BKN050
     FM210300 06008KT P6SM SCT025 BKN050
     FM210700 06006KT P6SM SCT050=



000
FTPA31 PHFO 200500
TAFHNL
TAF
PHNL 200527Z 2006/2112 06008KT P6SM SCT035 BKN045
     FM202000 15008KT P6SM SCT025 BKN050
     FM210300 06008KT P6SM SCT025 BKN050
     FM210700 06006KT P6SM SCT050=



000
FTPA31 PHFO 200500
TAFHNL
TAF
PHNL 200527Z 2006/2112 06008KT P6SM SCT035 BKN045
     FM202000 15008KT P6SM SCT025 BKN050
     FM210300 06008KT P6SM SCT025 BKN050
     FM210700 06006KT P6SM SCT050=



000
FTPA31 PHFO 200200 AAA
TAFHNL
TAF AMD
PHNL 200223Z 2002/2106 06010G15KT P6SM FEW025 SCT035 SCT050
      TEMPO 2002/2003 09010KT
     FM200600 05008KT P6SM FEW025 SCT045
     FM202100 15008KT P6SM FEW025 BKN045
     FM210500 VRB03KT P6SM FEW025 SCT045=



000
FTPA31 PHFO 192300
TAFHNL
TAF
PHNL 192339Z 2000/2106 06012G20KT P6SM FEW025 BKN050
     FM200600 05008KT P6SM FEW025 SCT045
     FM202100 15008KT P6SM FEW025 BKN045
     FM210500 VRB03KT P6SM FEW025 SCT045=



000
FTPA31 PHFO 192300
TAFHNL
TAF
PHNL 192339Z 2000/2106 06012G20KT P6SM FEW025 BKN050
     FM200600 05008KT P6SM FEW025 SCT045
     FM202100 15008KT P6SM FEW025 BKN045
     FM210500 VRB03KT P6SM FEW025 SCT045=



000
FTPA31 PHFO 192100 AAA
TAFHNL
TAF AMD
PHNL 192107Z 1921/2024 07010G18KT P6SM FEW025 BKN050
     FM200500 05006KT P6SM FEW025 SCT045
     FM202000 17008KT P6SM FEW025 SCT045=



000
FTPA31 PHFO 192100 AAA
TAFHNL
TAF AMD
PHNL 192107Z 1921/2024 07010G18KT P6SM FEW025 BKN050
     FM200500 05006KT P6SM FEW025 SCT045
     FM202000 17008KT P6SM FEW025 SCT045=



000
FTPA31 PHFO 191700
TAFHNL
TAF
PHNL 191737Z 1918/2024 06008KT P6SM FEW030 SCT050
     FM192000 07012G18KT P6SM FEW030 SCT050
     FM200500 05006KT P6SM FEW025 SCT045
     FM202000 17008KT P6SM FEW025 SCT045=



000
FTPA31 PHFO 191700
TAFHNL
TAF
PHNL 191737Z 1918/2024 06008KT P6SM FEW030 SCT050
     FM192000 07012G18KT P6SM FEW030 SCT050
     FM200500 05006KT P6SM FEW025 SCT045
     FM202000 17008KT P6SM FEW025 SCT045=



000
FTPA31 PHFO 191400 AAA
TAFHNL
TAF AMD
PHNL 191455Z 1915/2018 06010KT P6SM FEW030 BKN050
     FM192000 07012G18KT P6SM FEW030 SCT050
     FM200500 06008KT P6SM FEW025 SCT045=



000
FTPA31 PHFO 191400 AAA
TAFHNL
TAF AMD
PHNL 191455Z 1915/2018 06010KT P6SM FEW030 BKN050
     FM192000 07012G18KT P6SM FEW030 SCT050
     FM200500 06008KT P6SM FEW025 SCT045=



000
FTPA31 PHFO 191100
TAFHNL
TAF
PHNL 191135Z 1912/2018 06010KT P6SM FEW030 BKN050
     FM192000 07012G18KT P6SM FEW030 SCT050
     FM200500 06008KT P6SM FEW025 SCT045=



000
FTPA31 PHFO 190900 AAA
TAFHNL
TAF AMD
PHNL 190905Z 1909/2012 06011KT P6SM FEW025 BKN050
     FM192000 08012G18KT P6SM FEW030 SCT050
     FM200500 07008KT P6SM FEW025 SCT045=



000
FTPA31 PHFO 190900 AAA
TAFHNL
TAF AMD
PHNL 190905Z 1909/2012 06011KT P6SM FEW025 BKN050
     FM192000 08012G18KT P6SM FEW030 SCT050
     FM200500 07008KT P6SM FEW025 SCT045=



000
FTPA31 PHFO 190500
TAFHNL
TAF
PHNL 190537Z 1906/2012 06014G20KT P6SM VCSH SCT025 BKN050 BKN200
     FM190800 06011KT P6SM FEW025 BKN045
     FM192000 08012G18KT P6SM FEW030 SCT050
     FM200500 07008KT P6SM FEW025 SCT045=



000
FTPA31 PHFO 190500
TAFHNL
TAF
PHNL 190537Z 1906/2012 06014G20KT P6SM VCSH SCT025 BKN050 BKN200
     FM190800 06011KT P6SM FEW025 BKN045
     FM192000 08012G18KT P6SM FEW030 SCT050
     FM200500 07008KT P6SM FEW025 SCT045=



000
FTPA31 PHFO 190200 AAA
TAFHNL
TAF AMD
PHNL 190255Z 1903/2006 06016G23KT P6SM VCSH SCT025 BKN045
     FM190700 06009KT P6SM FEW025 BKN045
     FM192000 08013G19KT P6SM FEW030 SCT050
     FM200500 07008KT P6SM FEW025 SCT045=



000
FTPA31 PHFO 190200 AAA
TAFHNL
TAF AMD
PHNL 190255Z 1903/2006 06016G23KT P6SM VCSH SCT025 BKN045
     FM190700 06009KT P6SM FEW025 BKN045
     FM192000 08013G19KT P6SM FEW030 SCT050
     FM200500 07008KT P6SM FEW025 SCT045=



000
FTPA31 PHFO 182300
TAFHNL
TAF
PHNL 182337Z 1900/2006 06014G20KT P6SM VCSH SCT025 BKN045
     FM190700 06009KT P6SM FEW025 BKN045
     FM192000 08013G19KT P6SM FEW030 SCT050
     FM200500 07008KT P6SM FEW025 SCT045=



000
FTPA31 PHFO 182300
TAFHNL
TAF
PHNL 182337Z 1900/2006 06014G20KT P6SM VCSH SCT025 BKN045
     FM190700 06009KT P6SM FEW025 BKN045
     FM192000 08013G19KT P6SM FEW030 SCT050
     FM200500 07008KT P6SM FEW025 SCT045=



000
FTPA31 PHFO 182100 AAA
TAFHNL
TAF AMD
PHNL 182105Z 1821/1924 06014G20KT P6SM VCSH FEW025 BKN045
     FM190500 06010KT P6SM FEW030 SCT050
     FM192000 08014G20KT P6SM FEW030 SCT050=



000
FTPA31 PHFO 182100 AAA
TAFHNL
TAF AMD
PHNL 182105Z 1821/1924 06014G20KT P6SM VCSH FEW025 BKN045
     FM190500 06010KT P6SM FEW030 SCT050
     FM192000 08014G20KT P6SM FEW030 SCT050=



000
FTPA31 PHFO 181700
TAFHNL
TAF
PHNL 181736Z 1818/1924 08012KT P6SM VCSH FEW025 BKN045
     FM182000 06014G20KT P6SM FEW030 SCT050
     FM190500 06010KT P6SM FEW030 SCT050
     FM192000 08014G20KT P6SM FEW030 SCT050=



000
FTPA31 PHFO 181700
TAFHNL
TAF
PHNL 181736Z 1818/1924 08012KT P6SM VCSH FEW025 BKN045
     FM182000 06014G20KT P6SM FEW030 SCT050
     FM190500 06010KT P6SM FEW030 SCT050
     FM192000 08014G20KT P6SM FEW030 SCT050=



000
FTPA31 PHFO 181500 AAA
TAFHNL
TAF AMD
PHNL 181503Z 1815/1918 06010KT P6SM FEW025 SCT040
     FM182000 06014G20KT P6SM FEW030 SCT050
     FM190500 06010KT P6SM FEW030 SCT050=



000
FTPA31 PHFO 181500 AAA
TAFHNL
TAF AMD
PHNL 181503Z 1815/1918 06010KT P6SM FEW025 SCT040
     FM182000 06014G20KT P6SM FEW030 SCT050
     FM190500 06010KT P6SM FEW030 SCT050=



000
FTPA31 PHFO 181100
TAFHNL
TAF
PHNL 181138Z 1812/1918 06010KT P6SM FEW025 SCT040
     FM182000 06014G20KT P6SM FEW030 SCT050
     FM190500 06010KT P6SM FEW030 SCT050=



000
FTPA31 PHFO 181100
TAFHNL
TAF
PHNL 181138Z 1812/1918 06010KT P6SM FEW025 SCT040
     FM182000 06014G20KT P6SM FEW030 SCT050
     FM190500 06010KT P6SM FEW030 SCT050=



000
FTPA31 PHFO 180900 AAA
TAFHNL
TAF AMD
PHNL 180905Z 1809/1912 06010KT P6SM FEW025 SCT040
     FM182000 06014G20KT P6SM FEW030 SCT050
     FM190500 06010KT P6SM FEW030 SCT050=



000
FTPA31 PHFO 180900 AAA
TAFHNL
TAF AMD
PHNL 180905Z 1809/1912 06010KT P6SM FEW025 SCT040
     FM182000 06014G20KT P6SM FEW030 SCT050
     FM190500 06010KT P6SM FEW030 SCT050=



000
FTPA31 PHFO 180900 AAA
TAFHNL
TAF AMD
PHNL 180905Z 1809/1912 06010KT P6SM FEW025 SCT040
     FM182000 06014G20KT P6SM FEW030 SCT050
     FM190500 06010KT P6SM FEW030 SCT050=



000
FTPA31 PHFO 180900 AAA
TAFHNL
TAF AMD
PHNL 180905Z 1809/1912 06010KT P6SM FEW025 SCT040
     FM182000 06014G20KT P6SM FEW030 SCT050
     FM190500 06010KT P6SM FEW030 SCT050=



000
FTPA31 PHFO 180500
TAFHNL
TAF
PHNL 180536Z 1806/1912 06010KT P6SM FEW025 BKN040
     FM182000 06014G20KT P6SM FEW030 SCT050
     FM190500 06010KT P6SM FEW030 SCT050=



000
FTPA31 PHFO 180500
TAFHNL
TAF
PHNL 180536Z 1806/1912 06010KT P6SM FEW025 BKN040
     FM182000 06014G20KT P6SM FEW030 SCT050
     FM190500 06010KT P6SM FEW030 SCT050=



000
FTPA31 PHFO 180300 AAA
TAFHNL
TAF AMD
PHNL 180305Z 1803/1906 05015G22KT P6SM FEW025 SCT050 BKN200
     FM180600 06010KT P6SM FEW025 BKN040
     FM182000 06014G20KT P6SM FEW030 SCT050
     FM190500 06010KT P6SM FEW030 SCT050=



000
FTPA31 PHFO 180300 AAA
TAFHNL
TAF AMD
PHNL 180305Z 1803/1906 05015G22KT P6SM FEW025 SCT050 BKN200
     FM180600 06010KT P6SM FEW025 BKN040
     FM182000 06014G20KT P6SM FEW030 SCT050
     FM190500 06010KT P6SM FEW030 SCT050=



000
FTPA31 PHFO 172300
TAFHNL
TAF
PHNL 172330Z 1800/1906 05012G18KT P6SM FEW025 SCT050 BKN200
     FM180600 06010KT P6SM FEW025 BKN040
     FM182000 06014G20KT P6SM FEW030 SCT050
     FM190500 06010KT P6SM FEW030 SCT050=



000
FTPA31 PHFO 172100 AAA
TAFHNL
TAF AMD
PHNL 172106Z 1721/1824 06012G18KT P6SM FEW035 BKN050 BKN200
     FM180500 06010KT P6SM FEW035 BKN050
     FM182000 06014G20KT P6SM FEW030 SCT050=



000
FTPA31 PHFO 172100 AAA
TAFHNL
TAF AMD
PHNL 172106Z 1721/1824 06012G18KT P6SM FEW035 BKN050 BKN200
     FM180500 06010KT P6SM FEW035 BKN050
     FM182000 06014G20KT P6SM FEW030 SCT050=



000
FTPA31 PHFO 171700
TAFHNL
TAF
PHNL 171732Z 1718/1824 05006KT P6SM FEW030 SCT050
     FM172000 06012G18KT P6SM FEW035 BKN050
     FM180500 06010KT P6SM FEW035 BKN050
     FM182000 06014G20KT P6SM FEW030 SCT050=



000
FTPA31 PHFO 171700
TAFHNL
TAF
PHNL 171732Z 1718/1824 05006KT P6SM FEW030 SCT050
     FM172000 06012G18KT P6SM FEW035 BKN050
     FM180500 06010KT P6SM FEW035 BKN050
     FM182000 06014G20KT P6SM FEW030 SCT050=



000
FTPA31 PHFO 171400 AAA
TAFHNL
TAF AMD
PHNL 171454Z 1715/1818 04006KT P6SM FEW030 BKN050
     FM172000 06012G18KT P6SM FEW035 BKN050
     FM180500 06010KT P6SM FEW035 SCT050=



    US Dept of Commerce
    National Oceanic and Atmospheric Administration
    National Weather Service
    1325 East West Highway
    Silver Spring, MD 20910
    Page Author: NWS Internet Services Team
Disclaimer
Information Quality
Credits
Glossary
Privacy Policy
Freedom of Information Act (FOIA)
About Us
Career Opportunities